createdAt,value
2023-03-15T00:01:10.356Z,4.21
2023-03-15T00:05:15.368Z,4.25
2023-03-15T00:09:16.640Z,4.29
2023-03-15T00:13:19.686Z,4.25
2023-03-15T00:17:23.171Z,4.10
2023-03-15T00:21:24.831Z,4.26
2023-03-15T00:25:25.414Z,4.24
2023-03-15T00:29:25.940Z,4.10
2023-03-15T00:33:29.097Z,4.08
2023-03-15T00:37:29.759Z,4.03
2023-03-15T00:41:30.386Z,4.17
2023-03-15T00:45:32.937Z,4.12
2023-03-15T00:49:38.358Z,4.00
2023-03-15T00:53:44.050Z,3.96
2023-03-15T00:57:46.827Z,4.05
2023-03-15T01:01:47.525Z,3.97
2023-03-15T01:05:50.667Z,3.93
2023-03-15T01:09:51.221Z,3.94
2023-03-15T01:13:51.631Z,4.03
2023-03-15T01:17:51.997Z,4.12
2023-03-15T01:21:55.695Z,4.04
2023-03-15T01:25:56.190Z,4.11
2023-03-15T01:29:56.990Z,3.99
2023-03-15T01:33:57.992Z,4.20
2023-03-15T01:38:03.185Z,4.15
2023-03-15T01:42:06.483Z,4.22
2023-03-15T01:46:18.713Z,4.21
2023-03-15T01:50:20.124Z,4.23
2023-03-15T01:54:30.453Z,4.21
2023-03-15T01:58:33.077Z,4.20
2023-03-15T02:02:34.094Z,4.25
2023-03-15T02:06:35.959Z,4.28
2023-03-15T02:10:45.999Z,4.26
2023-03-15T02:14:49.126Z,4.34
2023-03-15T02:18:51.714Z,4.30
2023-03-15T02:22:59.946Z,4.22
2023-03-15T02:27:03.917Z,3.90
2023-03-15T02:31:07.593Z,4.12
2023-03-15T02:35:08.837Z,3.99
2023-03-15T02:39:19.714Z,3.76
2023-03-15T02:43:27.594Z,3.64
2023-03-15T02:47:38.738Z,3.44
2023-03-15T02:51:39.346Z,3.51
2023-03-15T02:55:39.926Z,3.24
2023-03-15T02:59:42.134Z,3.39
2023-03-15T03:03:47.676Z,3.51
2023-03-15T03:07:50.299Z,3.51
2023-03-15T03:11:51.262Z,3.59
2023-03-15T03:15:58.872Z,3.47
2023-03-15T03:20:08.063Z,3.55
2023-03-15T03:24:11.083Z,3.47
2023-03-15T03:28:11.334Z,3.64
2023-03-15T03:32:14.394Z,3.68
2023-03-15T03:36:18.342Z,3.69
2023-03-15T03:40:19.186Z,3.68
2023-03-15T03:44:19.658Z,3.54
2023-03-15T03:48:20.114Z,3.73
2023-03-15T03:52:24.106Z,3.65
2023-03-15T03:56:29.399Z,3.52
2023-03-15T04:00:32.496Z,3.74
2023-03-15T04:04:33.769Z,3.53
2023-03-15T04:08:37.418Z,3.64
2023-03-15T04:12:39.110Z,3.62
2023-03-15T04:16:41.454Z,3.67
2023-03-15T04:20:47.297Z,3.67
2023-03-15T04:24:53.320Z,3.54
2023-03-15T04:29:17.308Z,3.61
2023-03-15T04:33:41.928Z,3.59
2023-03-15T04:38:07.009Z,3.36
2023-03-15T04:42:48.088Z,3.40
2023-03-15T04:47:26.764Z,3.21
2023-03-15T04:51:45.680Z,3.25
2023-03-15T04:55:53.313Z,3.25
2023-03-15T05:00:07.880Z,3.15
2023-03-15T05:04:14.584Z,3.12
2023-03-15T05:08:33.859Z,3.04
2023-03-15T05:12:54.882Z,2.85
2023-03-15T05:17:17.082Z,3.12
2023-03-15T05:21:26.730Z,3.10
2023-03-15T05:25:58.262Z,3.00
2023-03-15T05:30:19.721Z,3.01
2023-03-15T05:34:43.148Z,3.03
2023-03-15T05:38:57.972Z,3.01
2023-03-15T05:43:18.630Z,3.04
2023-03-15T05:47:40.224Z,2.97
2023-03-15T05:51:47.381Z,3.04
2023-03-15T05:55:59.903Z,2.94
2023-03-15T06:00:26.002Z,3.05
2023-03-15T06:04:32.660Z,3.04
2023-03-15T06:08:37.485Z,3.29
2023-03-15T06:12:39.237Z,3.35
2023-03-15T06:16:39.710Z,3.31
2023-03-15T06:20:42.143Z,3.24
2023-03-15T06:24:49.026Z,3.39
2023-03-15T06:28:49.675Z,3.09
2023-03-15T06:32:50.584Z,3.10
2023-03-15T06:36:52.684Z,3.39
2023-03-15T06:40:56.128Z,3.08
2023-03-15T06:44:56.670Z,3.19
2023-03-15T06:48:57.280Z,3.28
2023-03-15T06:53:00.125Z,3.13
2023-03-15T06:57:04.226Z,3.02
2023-03-15T07:01:05.096Z,2.88
2023-03-15T07:05:05.519Z,3.07
2023-03-15T07:09:09.813Z,3.18
2023-03-15T07:13:12.613Z,3.18
2023-03-15T07:17:13.600Z,3.39
2023-03-15T07:21:14.313Z,3.58
2023-03-15T07:25:14.987Z,3.79
2023-03-15T07:29:18.951Z,3.69
2023-03-15T07:33:22.554Z,4.21
2023-03-15T07:37:23.221Z,4.50
2023-03-15T07:41:23.516Z,4.47
2023-03-15T07:45:42.130Z,4.33
2023-03-15T07:49:42.456Z,4.50
2023-03-15T07:53:43.472Z,4.53
2023-03-15T07:57:45.285Z,5.20
2023-03-15T08:01:51.324Z,5.44
2023-03-15T08:05:53.291Z,5.13
2023-03-15T08:09:54.212Z,5.39
2023-03-15T08:13:55.080Z,5.08
2023-03-15T08:17:59.414Z,4.39
2023-03-15T08:21:59.734Z,4.16
2023-03-15T08:26:00.905Z,3.91
2023-03-15T08:30:01.686Z,4.21
2023-03-15T08:34:05.497Z,4.63
2023-03-15T08:38:06.090Z,4.65
2023-03-15T08:42:07.312Z,5.13
2023-03-15T08:46:08.373Z,5.09
2023-03-15T08:50:15.784Z,4.97
2023-03-15T08:54:16.765Z,5.50
2023-03-15T08:58:17.511Z,5.29
2023-03-15T09:02:18.051Z,5.03
2023-03-15T09:06:21.232Z,5.13
2023-03-15T09:10:22.894Z,5.48
2023-03-15T09:14:24.130Z,5.74
2023-03-15T09:18:25.487Z,5.89
2023-03-15T09:22:38.939Z,6.17
2023-03-15T09:26:40.097Z,6.25
2023-03-15T09:30:43.696Z,6.11
2023-03-15T09:34:44.373Z,6.23
2023-03-15T09:38:49.045Z,7.00
2023-03-15T09:43:18.472Z,7.23
2023-03-15T09:47:35.166Z,7.06
2023-03-15T09:51:48.213Z,6.46
2023-03-15T09:55:54.025Z,6.29
2023-03-15T09:59:58.211Z,7.31
2023-03-15T10:03:59.492Z,7.45
2023-03-15T10:08:00.725Z,7.33
2023-03-15T10:12:08.692Z,7.76
2023-03-15T10:16:33.084Z,7.26
2023-03-15T10:20:39.748Z,6.93
2023-03-15T10:24:50.135Z,7.18
2023-03-15T10:28:54.614Z,7.47
2023-03-15T10:33:01.475Z,6.39
2023-03-15T10:37:01.973Z,6.31
2023-03-15T10:41:03.692Z,6.24
2023-03-15T10:45:23.652Z,6.75
2023-03-15T10:49:23.918Z,7.74
2023-03-15T10:53:25.666Z,8.11
2023-03-15T10:57:36.573Z,7.14
2023-03-15T11:01:39.558Z,5.71
2023-03-15T11:05:47.155Z,4.79
2023-03-15T11:09:55.953Z,4.40
2023-03-15T11:14:03.968Z,4.21
2023-03-15T11:18:09.406Z,4.26
2023-03-15T11:22:16.916Z,4.50
2023-03-15T11:26:32.381Z,4.86
2023-03-15T11:30:34.385Z,4.78
2023-03-15T11:34:57.022Z,5.18
2023-03-15T11:38:58.534Z,5.67
2023-03-15T11:43:12.326Z,6.17
2023-03-15T11:47:23.506Z,6.22
2023-03-15T11:51:27.114Z,6.02
2023-03-15T11:55:30.968Z,6.19
2023-03-15T11:59:35.816Z,5.73
2023-03-15T12:03:44.324Z,5.42
2023-03-15T12:08:21.321Z,5.30
2023-03-15T12:12:41.756Z,5.16
2023-03-15T12:16:48.578Z,5.00
2023-03-15T12:21:00.435Z,5.27
2023-03-15T12:25:19.597Z,4.98
2023-03-15T12:29:26.077Z,4.93
2023-03-15T12:33:28.550Z,5.10
2023-03-15T12:37:42.236Z,5.39
2023-03-15T12:41:48.443Z,4.93
2023-03-15T12:45:50.186Z,5.01
2023-03-15T12:49:50.868Z,5.18
2023-03-15T12:53:56.807Z,5.27
2023-03-15T12:58:05.328Z,4.95
2023-03-15T13:02:42.241Z,5.24
2023-03-15T13:07:17.576Z,4.90
2023-03-15T13:11:30.472Z,4.78
2023-03-15T13:15:43.310Z,4.71
2023-03-15T13:19:48.242Z,4.51
2023-03-15T13:23:54.868Z,4.85
2023-03-15T13:28:02.116Z,4.59
2023-03-15T13:32:19.471Z,4.66
2023-03-15T13:36:23.780Z,4.89
2023-03-15T13:40:24.530Z,5.10
2023-03-15T13:44:28.408Z,5.35
2023-03-15T13:48:35.999Z,5.72
2023-03-15T13:52:37.451Z,5.73
2023-03-15T13:56:49.531Z,5.64
2023-03-15T14:00:52.227Z,5.56
2023-03-15T14:05:07.490Z,5.34
2023-03-15T14:09:22.021Z,5.59
2023-03-15T14:13:28.926Z,6.17
2023-03-15T14:17:33.658Z,6.89
2023-03-15T14:21:36.666Z,8.16
2023-03-15T14:25:39.414Z,8.77
2023-03-15T14:29:48.621Z,8.79
2023-03-15T14:34:00.461Z,8.18
2023-03-15T14:38:18.011Z,7.90
2023-03-15T14:42:18.299Z,7.47
2023-03-15T14:46:18.793Z,7.07
2023-03-15T14:50:23.597Z,7.43
2023-03-15T14:54:28.648Z,7.39
2023-03-15T14:58:30.770Z,7.27
2023-03-15T15:02:33.099Z,7.35
2023-03-15T15:06:38.736Z,7.29
2023-03-15T15:10:45.401Z,7.24
2023-03-15T15:14:46.126Z,7.00
2023-03-15T15:18:46.537Z,6.06
2023-03-15T15:22:47.691Z,5.64
2023-03-15T15:26:51.029Z,5.49
2023-03-15T15:30:53.236Z,5.59
2023-03-15T15:34:54.984Z,5.69
2023-03-15T15:38:55.601Z,5.23
2023-03-15T15:42:59.042Z,4.87
2023-03-15T15:47:01.285Z,5.23
2023-03-15T15:51:01.943Z,5.65
2023-03-15T15:55:04.121Z,5.62
2023-03-15T15:59:15.295Z,5.65
2023-03-15T16:03:19.249Z,6.32
2023-03-15T16:07:22.898Z,6.77
2023-03-15T16:11:26.259Z,6.78
2023-03-15T16:15:31.704Z,7.32
2023-03-15T16:19:32.500Z,7.29
2023-03-15T16:23:33.021Z,6.72
2023-03-15T16:27:33.684Z,6.13
2023-03-15T16:31:36.807Z,5.56
2023-03-15T16:35:39.491Z,5.70
2023-03-15T16:39:41.130Z,5.41
2023-03-15T16:43:41.790Z,5.18
2023-03-15T16:47:45.706Z,5.14
2023-03-15T16:51:53.013Z,5.07
2023-03-15T16:55:53.636Z,5.07
2023-03-15T16:59:54.713Z,4.86
2023-03-15T17:04:00.286Z,4.57
2023-03-15T17:08:03.834Z,4.73
2023-03-15T17:12:05.702Z,4.66
2023-03-15T17:16:09.342Z,4.57
2023-03-15T17:20:22.253Z,4.68
2023-03-15T17:24:24.674Z,4.96
2023-03-15T17:28:27.360Z,5.10
2023-03-15T17:32:30.726Z,5.15
2023-03-15T17:36:42.314Z,5.02
2023-03-15T17:40:46.135Z,4.92
2023-03-15T17:44:49.069Z,5.02
2023-03-15T17:48:52.297Z,5.06
2023-03-15T17:53:00.869Z,4.95
2023-03-15T17:57:06.486Z,4.90
2023-03-15T18:01:09.997Z,4.85
2023-03-15T18:05:19.632Z,4.62
2023-03-15T18:09:26.492Z,4.46
2023-03-15T18:13:27.734Z,4.30
2023-03-15T18:17:27.975Z,4.13
2023-03-15T18:21:30.786Z,4.09
2023-03-15T18:25:36.400Z,3.82
2023-03-15T18:29:36.940Z,3.82
2023-03-15T18:33:38.202Z,3.79
2023-03-15T18:37:38.729Z,3.53
2023-03-15T18:41:42.138Z,3.72
2023-03-15T18:45:42.897Z,3.74
2023-03-15T18:49:43.230Z,3.52
2023-03-15T18:53:46.189Z,3.67
2023-03-15T18:57:52.928Z,3.59
2023-03-15T19:01:55.479Z,3.58
2023-03-15T19:05:59.950Z,3.47
2023-03-15T19:10:03.325Z,3.45
2023-03-15T19:14:09.179Z,3.42
2023-03-15T19:18:10.265Z,3.33
2023-03-15T19:22:10.697Z,3.34
2023-03-15T19:26:11.179Z,3.23
2023-03-15T19:30:21.080Z,3.08
2023-03-15T19:34:22.856Z,3.17
2023-03-15T19:38:23.629Z,3.12
2023-03-15T19:42:23.975Z,3.11
2023-03-15T19:46:27.470Z,3.11
2023-03-15T19:50:31.093Z,3.11
2023-03-15T19:54:34.208Z,3.15
2023-03-15T19:58:35.184Z,3.15
2023-03-15T20:02:38.140Z,3.10
2023-03-15T20:06:39.168Z,3.12
2023-03-15T20:10:39.720Z,3.09
2023-03-15T20:14:41.225Z,3.14
2023-03-15T20:18:44.338Z,3.07
2023-03-15T20:22:48.365Z,2.84
2023-03-15T20:26:48.765Z,2.56
2023-03-15T20:30:49.474Z,2.26
2023-03-15T20:34:57.157Z,2.11
2023-03-15T20:38:57.484Z,2.03
2023-03-15T20:43:00.324Z,1.95
2023-03-15T20:47:02.513Z,1.84
2023-03-15T20:51:10.801Z,1.75
2023-03-15T20:55:15.297Z,1.60
2023-03-15T20:59:17.656Z,1.75
2023-03-15T21:03:21.891Z,1.58
2023-03-15T21:07:27.731Z,1.60
2023-03-15T21:11:31.128Z,1.55
2023-03-15T21:15:33.702Z,1.51
2023-03-15T21:19:34.465Z,1.51
2023-03-15T21:23:38.770Z,1.48
2023-03-15T21:27:39.838Z,1.41
2023-03-15T21:31:40.391Z,1.34
2023-03-15T21:35:40.766Z,1.26
2023-03-15T21:39:43.702Z,1.27
2023-03-15T21:43:44.095Z,1.38
2023-03-15T21:47:47.108Z,1.44
2023-03-15T21:51:48.121Z,1.24
2023-03-15T21:55:53.876Z,1.05
2023-03-15T21:59:54.350Z,1.04
2023-03-15T22:03:56.401Z,1.18
2023-03-15T22:07:56.764Z,1.08
2023-03-15T22:11:59.663Z,1.07
2023-03-15T22:16:01.582Z,1.03
2023-03-15T22:20:02.178Z,1.10
2023-03-15T22:24:02.608Z,1.04
2023-03-15T22:28:05.384Z,1.06
2023-03-15T22:32:05.646Z,0.96
2023-03-15T22:36:06.780Z,1.01
2023-03-15T22:40:08.332Z,1.01
2023-03-15T22:44:11.300Z,0.98
2023-03-15T22:48:11.619Z,1.00
2023-03-15T22:52:12.537Z,0.91
2023-03-15T22:56:14.585Z,0.81
2023-03-15T23:00:25.528Z,0.90
2023-03-15T23:04:29.020Z,1.07
2023-03-15T23:08:31.736Z,1.18
2023-03-15T23:12:36.587Z,1.12
2023-03-15T23:16:42.877Z,1.13
2023-03-15T23:20:46.407Z,1.22
2023-03-15T23:24:48.136Z,1.37
2023-03-15T23:28:48.487Z,1.40
2023-03-15T23:32:58.055Z,1.40
2023-03-15T23:36:59.000Z,1.38
2023-03-15T23:41:01.822Z,1.35
2023-03-15T23:45:02.053Z,1.21
2023-03-15T23:49:05.828Z,1.29
2023-03-15T23:53:06.024Z,1.21
2023-03-15T23:57:06.565Z,1.09
